createdAt,value
2016-03-08T00:00:17.138Z,992.87
2016-03-08T00:01:17.141Z,992.88
2016-03-08T00:02:17.159Z,992.91
2016-03-08T00:03:17.177Z,992.93
2016-03-08T00:04:17.181Z,992.95
2016-03-08T00:05:17.198Z,992.9
2016-03-08T00:06:17.201Z,992.94
2016-03-08T00:07:17.220Z,992.97
2016-03-08T00:08:17.222Z,993.04
2016-03-08T00:09:17.241Z,993.02
2016-03-08T00:10:17.243Z,993.02
2016-03-08T00:11:17.261Z,993
2016-03-08T00:12:17.280Z,992.99
2016-03-08T00:13:17.283Z,993.04
2016-03-08T00:14:17.301Z,993.05
2016-03-08T00:15:17.304Z,993.06
2016-03-08T00:16:17.321Z,993.03
2016-03-08T00:17:17.325Z,993.06
2016-03-08T00:18:17.343Z,993.06
2016-03-08T00:19:17.360Z,993.14
2016-03-08T00:20:17.363Z,993.15
2016-03-08T00:21:17.382Z,993.12
2016-03-08T00:22:17.385Z,993.17
2016-03-08T00:23:17.404Z,993.16
2016-03-08T00:24:17.421Z,993.2
2016-03-08T00:25:17.423Z,993.13
2016-03-08T00:26:17.427Z,993.17
2016-03-08T00:27:17.445Z,993.15
2016-03-08T00:28:17.463Z,993.18
2016-03-08T00:29:17.467Z,993.18
2016-03-08T00:30:17.484Z,993.18
2016-03-08T00:31:17.503Z,993.21
2016-03-08T00:32:17.506Z,993.25
2016-03-08T00:33:17.523Z,993.23
2016-03-08T00:34:17.526Z,993.27
2016-03-08T00:35:17.545Z,993.25
2016-03-08T00:36:17.563Z,993.28
2016-03-08T00:37:17.566Z,993.25
2016-03-08T00:38:17.569Z,993.33
2016-03-08T00:39:17.587Z,993.29
2016-03-08T00:40:17.605Z,993.33
2016-03-08T00:41:17.608Z,993.32
2016-03-08T00:42:17.626Z,993.33
2016-03-08T00:43:17.629Z,993.31
2016-03-08T00:44:17.647Z,993.29
2016-03-08T00:45:17.665Z,993.33
2016-03-08T00:46:17.668Z,993.34
2016-03-08T00:47:17.685Z,993.33
2016-03-08T00:48:17.689Z,993.32
2016-03-08T00:49:17.707Z,993.35
2016-03-08T00:50:17.710Z,993.35
2016-03-08T00:51:17.729Z,993.39
2016-03-08T00:52:17.746Z,993.38
2016-03-08T00:53:17.749Z,993.38
2016-03-08T00:54:17.768Z,993.37
2016-03-08T00:55:17.770Z,993.37
2016-03-08T00:56:17.789Z,993.41
2016-03-08T00:57:17.807Z,993.4
2016-03-08T00:58:17.809Z,993.44
2016-03-08T00:59:17.829Z,993.37
2016-03-08T01:00:17.831Z,993.38
2016-03-08T01:01:17.834Z,993.39
2016-03-08T01:02:17.851Z,993.43
2016-03-08T01:03:17.870Z,993.38
2016-03-08T01:04:17.873Z,993.41
2016-03-08T01:05:17.891Z,993.4
2016-03-08T01:06:17.894Z,993.4
2016-03-08T01:07:17.912Z,993.39
2016-03-08T01:08:17.930Z,993.39
2016-03-08T01:09:17.933Z,993.38
2016-03-08T01:10:17.945Z,993.37
2016-03-08T01:11:17.935Z,993.38
2016-03-08T01:12:17.941Z,993.42
2016-03-08T01:13:17.931Z,993.41
2016-03-08T01:14:17.937Z,993.42
2016-03-08T01:15:17.947Z,993.42
2016-03-08T01:16:17.946Z,993.39
2016-03-08T01:17:17.945Z,993.44
2016-03-08T01:18:17.959Z,993.44
2016-03-08T01:19:17.973Z,993.4
2016-03-08T01:20:17.988Z,993.42
2016-03-08T01:21:17.990Z,993.39
2016-03-08T01:22:17.991Z,993.47
2016-03-08T01:23:18.008Z,993.44
2016-03-08T01:24:18.008Z,993.45
2016-03-08T01:25:18.027Z,993.51
2016-03-08T01:26:18.043Z,993.5
2016-03-08T01:27:18.046Z,993.46
2016-03-08T01:28:18.063Z,993.5
2016-03-08T01:32:18.103Z,993.53
2016-03-08T01:33:18.105Z,993.55
2016-03-08T01:34:18.124Z,993.58
2016-03-08T01:35:18.126Z,993.57
2016-03-08T01:36:18.143Z,993.6
2016-03-08T01:37:18.147Z,993.61
2016-03-08T01:38:18.165Z,993.6
2016-03-08T01:39:18.183Z,993.61
2016-03-08T01:40:18.187Z,993.62
2016-03-08T01:41:18.189Z,993.59
2016-03-08T01:42:18.207Z,993.61
2016-03-08T01:43:18.225Z,993.65
2016-03-08T01:44:18.243Z,993.65
2016-03-08T01:45:18.246Z,993.65
2016-03-08T01:46:18.249Z,993.65
2016-03-08T01:47:18.267Z,993.69
2016-03-08T01:48:18.286Z,993.67
2016-03-08T01:49:18.288Z,993.63
2016-03-08T01:50:18.292Z,993.67
2016-03-08T01:51:18.309Z,993.67
2016-03-08T01:52:18.327Z,993.64
2016-03-08T01:53:18.330Z,993.68
2016-03-08T01:54:18.349Z,993.69
2016-03-08T01:55:18.351Z,993.68
2016-03-08T01:56:18.386Z,993.63
2016-03-08T01:57:18.372Z,993.68
2016-03-08T01:58:18.390Z,993.67
2016-03-08T01:59:18.394Z,993.64
2016-03-08T02:00:18.411Z,993.62
2016-03-08T02:01:18.414Z,993.68
2016-03-08T02:02:18.432Z,993.62
2016-03-08T02:03:18.482Z,993.67
2016-03-08T02:04:18.454Z,993.73
2016-03-08T02:05:18.472Z,993.71
2016-03-08T02:06:18.475Z,993.71
2016-03-08T02:07:18.477Z,993.76
2016-03-08T02:08:18.495Z,993.73
2016-03-08T02:09:18.515Z,993.75
2016-03-08T02:10:18.517Z,993.71
2016-03-08T02:11:18.534Z,993.74
2016-03-08T02:12:18.538Z,993.71
2016-03-08T02:13:18.556Z,993.72
2016-03-08T02:14:18.559Z,993.68
2016-03-08T02:15:18.577Z,993.7
2016-03-08T02:16:18.595Z,993.7
2016-03-08T02:17:18.598Z,993.67
2016-03-08T02:18:18.632Z,993.71
2016-03-08T02:19:18.619Z,993.69
2016-03-08T02:20:18.622Z,993.75
2016-03-08T02:21:18.639Z,993.73
2016-03-08T02:22:18.642Z,993.76
2016-03-08T02:23:18.661Z,993.72
2016-03-08T02:24:18.664Z,993.77
2016-03-08T02:25:18.682Z,993.75
2016-03-08T02:26:18.700Z,993.77
2016-03-08T02:27:18.703Z,993.79
2016-03-08T02:28:18.721Z,993.79
2016-03-08T02:29:18.724Z,993.8
2016-03-08T02:30:18.741Z,993.78
2016-03-08T02:31:18.745Z,993.79
2016-03-08T02:32:18.763Z,993.79
2016-03-08T02:33:18.782Z,993.82
2016-03-08T02:34:18.785Z,993.82
2016-03-08T02:35:18.787Z,993.81
2016-03-08T02:36:18.805Z,993.79
2016-03-08T02:37:18.808Z,993.82
2016-03-08T02:38:18.827Z,993.85
2016-03-08T02:39:18.829Z,993.86
2016-03-08T02:40:18.847Z,993.9
2016-03-08T02:41:18.851Z,993.93
2016-03-08T02:42:18.868Z,993.94
2016-03-08T02:43:18.871Z,993.94
2016-03-08T02:44:18.890Z,993.95
2016-03-08T02:45:18.892Z,993.99
2016-03-08T02:46:18.909Z,994
2016-03-08T02:47:18.913Z,993.97
2016-03-08T02:48:18.931Z,994.01
2016-03-08T02:49:18.934Z,994.02
2016-03-08T02:50:18.953Z,994.05
2016-03-08T02:51:18.955Z,994.04
2016-03-08T02:52:18.973Z,994.02
2016-03-08T02:53:18.992Z,994.03
2016-03-08T02:54:18.994Z,994.07
2016-03-08T02:55:19.013Z,994.03
2016-03-08T02:56:19.015Z,994.08
2016-03-08T02:57:19.034Z,994.07
2016-03-08T02:58:19.036Z,994.1
2016-03-08T02:59:19.038Z,994.13
2016-03-08T03:00:19.057Z,994.1
2016-03-08T03:01:19.060Z,994.14
2016-03-08T03:02:19.078Z,994.16
2016-03-08T03:03:19.097Z,994.21
2016-03-08T03:04:19.099Z,994.14
2016-03-08T03:05:19.102Z,994.14
2016-03-08T03:06:19.121Z,994.17
2016-03-08T03:07:19.139Z,994.18
2016-03-08T03:08:19.141Z,994.17
2016-03-08T03:09:19.159Z,994.18
2016-03-08T03:10:19.163Z,994.21
2016-03-08T03:11:19.181Z,994.25
2016-03-08T03:12:19.184Z,994.27
2016-03-08T03:13:19.187Z,994.24
2016-03-08T03:14:19.204Z,994.24
2016-03-08T03:15:19.222Z,994.24
2016-03-08T03:16:19.226Z,994.23
2016-03-08T03:17:19.243Z,994.25
2016-03-08T03:18:19.246Z,994.25
2016-03-08T03:19:19.264Z,994.27
2016-03-08T03:20:19.267Z,994.28
2016-03-08T03:21:19.286Z,994.23
2016-03-08T03:22:19.289Z,994.25
2016-03-08T03:23:19.307Z,994.26
2016-03-08T03:24:19.309Z,994.32
2016-03-08T03:25:19.327Z,994.32
2016-03-08T03:26:19.331Z,994.33
2016-03-08T03:27:19.395Z,994.3
2016-03-08T03:28:19.352Z,994.33
2016-03-08T03:29:19.369Z,994.3
2016-03-08T03:30:19.372Z,994.33
2016-03-08T03:31:19.391Z,994.28
2016-03-08T03:32:19.409Z,994.3
2016-03-08T03:33:19.412Z,994.31
2016-03-08T03:34:19.430Z,994.28
2016-03-08T03:35:19.432Z,994.27
2016-03-08T03:36:19.436Z,994.27
2016-03-08T03:37:19.454Z,994.31
2016-03-08T03:38:19.471Z,994.35
2016-03-08T03:39:19.474Z,994.34
2016-03-08T03:40:19.477Z,994.33
2016-03-08T03:41:19.495Z,994.33
2016-03-08T03:42:19.515Z,994.31
2016-03-08T03:43:19.517Z,994.3
2016-03-08T03:44:19.520Z,994.32
2016-03-08T03:45:19.537Z,994.32
2016-03-08T03:46:19.556Z,994.36
2016-03-08T03:47:19.559Z,994.34
2016-03-08T03:48:19.576Z,994.31
2016-03-08T03:49:19.579Z,994.37
2016-03-08T03:50:19.598Z,994.38
2016-03-08T03:51:19.600Z,994.41
2016-03-08T03:52:19.620Z,994.37
2016-03-08T03:53:19.637Z,994.37
2016-03-08T03:54:19.640Z,994.41
2016-03-08T03:55:19.643Z,994.39
2016-03-08T03:56:19.661Z,994.43
2016-03-08T03:57:19.664Z,994.42
2016-03-08T03:58:19.682Z,994.42
2016-03-08T03:59:19.685Z,994.43
2016-03-08T04:00:19.703Z,994.4
2016-03-08T04:01:19.705Z,994.44
2016-03-08T04:02:19.725Z,994.42
2016-03-08T04:03:19.727Z,994.46
2016-03-08T04:04:19.744Z,994.45
2016-03-08T04:05:19.747Z,994.47
2016-03-08T04:06:19.766Z,994.45
2016-03-08T04:07:19.779Z,994.45
2016-03-08T04:08:19.781Z,994.48
2016-03-08T04:09:19.784Z,994.44
2016-03-08T04:10:19.802Z,994.46
2016-03-08T04:11:19.804Z,994.48
2016-03-08T04:12:19.823Z,994.44
2016-03-08T04:13:19.826Z,994.44
2016-03-08T04:14:19.844Z,994.46
2016-03-08T04:15:19.863Z,994.5
2016-03-08T04:16:19.865Z,994.48
2016-03-08T04:17:19.884Z,994.47
2016-03-08T04:18:19.886Z,994.49
2016-03-08T04:19:19.905Z,994.51
2016-03-08T04:20:19.907Z,994.51
2016-03-08T04:21:19.925Z,994.54
2016-03-08T04:22:19.927Z,994.54
2016-03-08T04:23:19.946Z,994.56
2016-03-08T04:24:19.949Z,994.53
2016-03-08T04:25:19.952Z,994.54
2016-03-08T04:26:19.970Z,994.57
2016-03-08T04:27:19.988Z,994.55
2016-03-08T04:28:19.991Z,994.57
2016-03-08T04:29:20.010Z,994.53
2016-03-08T04:30:20.012Z,994.59
2016-03-08T04:31:20.015Z,994.59
2016-03-08T04:32:20.032Z,994.61
2016-03-08T04:33:20.036Z,994.6
2016-03-08T04:34:20.054Z,994.62
2016-03-08T04:35:20.057Z,994.6
2016-03-08T04:36:20.076Z,994.58
2016-03-08T04:37:20.078Z,994.63
2016-03-08T04:38:20.096Z,994.63
2016-03-08T04:39:20.099Z,994.64
2016-03-08T04:40:20.101Z,994.63
2016-03-08T04:41:20.120Z,994.67
2016-03-08T04:42:20.137Z,994.65
2016-03-08T04:43:20.141Z,994.64
2016-03-08T04:44:20.159Z,994.65
2016-03-08T04:45:20.162Z,994.71
2016-03-08T04:46:20.181Z,994.71
2016-03-08T04:47:20.183Z,994.73
2016-03-08T04:48:20.186Z,994.75
2016-03-08T04:49:20.204Z,994.78
2016-03-08T04:50:20.223Z,994.76
2016-03-08T04:51:20.225Z,994.72
2016-03-08T04:52:20.227Z,994.79
2016-03-08T04:53:20.246Z,994.76
2016-03-08T04:54:20.249Z,994.75
2016-03-08T04:55:20.266Z,994.83
2016-03-08T04:56:20.286Z,994.83
2016-03-08T04:57:20.288Z,994.86
2016-03-08T04:58:20.290Z,994.87
2016-03-08T04:59:20.308Z,994.85
2016-03-08T05:00:20.311Z,994.86
2016-03-08T05:01:20.330Z,994.91
2016-03-08T05:02:20.332Z,994.88
2016-03-08T05:03:20.351Z,994.92
2016-03-08T05:04:20.354Z,994.91
2016-03-08T05:05:20.371Z,994.94
2016-03-08T05:06:20.375Z,994.96
2016-03-08T05:07:20.393Z,994.98
2016-03-08T05:08:20.396Z,994.97
2016-03-08T05:09:20.414Z,994.99
2016-03-08T05:10:20.417Z,994.97
2016-03-08T05:11:20.435Z,994.97
2016-03-08T05:12:20.437Z,995
2016-03-08T05:13:20.440Z,995
2016-03-08T05:14:20.459Z,995.06
2016-03-08T05:15:20.476Z,995.04
2016-03-08T05:16:20.480Z,995.04
2016-03-08T05:17:20.482Z,995.06
2016-03-08T05:18:20.501Z,995.1
2016-03-08T05:19:20.503Z,995.11
2016-03-08T05:20:20.522Z,995.14
2016-03-08T05:21:20.524Z,995.14
2016-03-08T05:22:20.542Z,995.15
2016-03-08T05:23:20.560Z,995.2
2016-03-08T05:24:20.564Z,995.19
2016-03-08T05:25:20.566Z,995.22
2016-03-08T05:26:20.585Z,995.22
2016-03-08T05:27:20.588Z,995.22
2016-03-08T05:28:20.605Z,995.25
2016-03-08T05:29:20.608Z,995.26
2016-03-08T05:30:20.626Z,995.26
2016-03-08T05:31:20.630Z,995.21
2016-03-08T05:32:20.632Z,995.28
2016-03-08T05:33:20.649Z,995.28
2016-03-08T05:34:20.647Z,995.27
2016-03-08T05:35:20.677Z,995.26
2016-03-08T05:36:20.664Z,995.3
2016-03-08T05:37:20.695Z,995.3
2016-03-08T05:38:21.563Z,995.3
2016-03-08T05:39:20.706Z,995.32
2016-03-08T05:40:20.708Z,995.29
2016-03-08T05:41:20.711Z,995.3
2016-03-08T05:42:20.728Z,995.3
2016-03-08T05:43:20.732Z,995.35
2016-03-08T05:44:20.750Z,995.37
2016-03-08T05:45:20.753Z,995.39
2016-03-08T05:46:20.771Z,995.39
2016-03-08T05:47:20.773Z,995.41
2016-03-08T05:48:20.792Z,995.46
2016-03-08T05:49:20.802Z,995.49
2016-03-08T05:50:20.805Z,995.52
2016-03-08T05:51:20.822Z,995.48
2016-03-08T05:52:20.825Z,995.52
2016-03-08T05:53:20.844Z,995.57
2016-03-08T05:54:20.862Z,995.56
2016-03-08T05:55:20.865Z,995.56
2016-03-08T05:56:20.868Z,995.64
2016-03-08T05:57:20.870Z,995.66
2016-03-08T05:58:20.888Z,995.62
2016-03-08T05:59:20.891Z,995.65
2016-03-08T06:00:20.909Z,995.63
2016-03-08T06:01:20.912Z,995.67
2016-03-08T06:02:20.930Z,995.68
2016-03-08T06:03:20.934Z,995.7
2016-03-08T06:04:20.951Z,995.7
2016-03-08T06:05:20.954Z,995.74
2016-03-08T06:06:20.961Z,995.73
2016-03-08T06:07:20.965Z,995.74
2016-03-08T06:08:20.983Z,995.76
2016-03-08T06:09:20.985Z,995.75
2016-03-08T06:10:21.003Z,995.76
2016-03-08T06:11:21.006Z,995.82
2016-03-08T06:12:21.009Z,995.8
2016-03-08T06:13:21.027Z,995.84
2016-03-08T06:14:21.030Z,995.82
2016-03-08T06:15:21.049Z,995.85
2016-03-08T06:16:21.051Z,995.89
2016-03-08T06:17:21.070Z,995.9
2016-03-08T06:18:21.088Z,995.94
2016-03-08T06:19:21.091Z,995.92
2016-03-08T06:20:21.093Z,995.91
2016-03-08T06:21:21.111Z,995.95
2016-03-08T06:22:21.114Z,995.93
2016-03-08T06:23:21.132Z,995.94
2016-03-08T06:24:21.135Z,995.98
2016-03-08T06:25:21.154Z,995.98
2016-03-08T06:26:21.157Z,995.99
2016-03-08T06:27:21.159Z,996
2016-03-08T06:28:21.177Z,996.02
2016-03-08T06:29:21.195Z,996
2016-03-08T06:30:21.198Z,995.98
2016-03-08T06:31:21.216Z,996.01
2016-03-08T06:32:21.220Z,996
2016-03-08T06:33:21.222Z,996.04
2016-03-08T06:34:21.225Z,996.04
2016-03-08T06:35:21.242Z,996.04
2016-03-08T06:36:21.261Z,996.05
2016-03-08T06:37:21.264Z,996.04
2016-03-08T06:38:21.266Z,996.07
2016-03-08T06:39:21.285Z,996.08
2016-03-08T06:40:21.303Z,996.08
2016-03-08T06:41:21.305Z,996.1
2016-03-08T06:42:21.324Z,996.11
2016-03-08T06:43:21.327Z,996.12
2016-03-08T06:44:21.330Z,996.17
2016-03-08T06:45:21.347Z,996.18
2016-03-08T06:46:21.350Z,996.18
2016-03-08T06:47:21.369Z,996.18
2016-03-08T06:48:21.371Z,996.21
2016-03-08T06:49:21.391Z,996.18
2016-03-08T06:50:21.393Z,996.25
2016-03-08T06:51:21.411Z,996.23
2016-03-08T06:52:21.413Z,996.27
2016-03-08T06:53:21.432Z,996.22
2016-03-08T06:54:21.435Z,996.27
2016-03-08T06:55:21.452Z,996.31
2016-03-08T06:56:21.455Z,996.29
2016-03-08T06:57:21.474Z,996.29
2016-03-08T06:58:21.477Z,996.33
2016-03-08T06:59:21.479Z,996.32
2016-03-08T07:00:21.498Z,996.35
2016-03-08T07:01:21.516Z,996.39
2016-03-08T07:02:21.518Z,996.4
2016-03-08T07:03:21.520Z,996.38
2016-03-08T07:04:21.540Z,996.4
2016-03-08T07:05:21.558Z,996.45
2016-03-08T07:06:21.560Z,996.39
2016-03-08T07:07:21.578Z,996.47
2016-03-08T07:08:21.581Z,996.43
2016-03-08T07:09:21.600Z,996.43
2016-03-08T07:10:21.603Z,996.44
2016-03-08T07:11:21.621Z,996.43
2016-03-08T07:12:21.623Z,996.43
2016-03-08T07:13:21.641Z,996.47
2016-03-08T07:14:21.644Z,996.48
2016-03-08T07:15:21.663Z,996.49
2016-03-08T07:16:21.666Z,996.51
2016-03-08T07:17:21.683Z,996.51
2016-03-08T07:18:21.686Z,996.54
2016-03-08T07:19:21.705Z,996.55
2016-03-08T07:20:21.723Z,996.59
2016-03-08T07:21:21.727Z,996.6
2016-03-08T07:22:21.729Z,996.58
2016-03-08T07:23:21.747Z,996.58
2016-03-08T07:24:21.765Z,996.62
2016-03-08T07:25:21.768Z,996.57
2016-03-08T07:26:21.771Z,996.61
2016-03-08T07:27:21.788Z,996.64
2016-03-08T07:28:21.791Z,996.62
2016-03-08T07:29:21.810Z,996.65
2016-03-08T07:30:21.828Z,996.69
2016-03-08T07:31:21.831Z,996.67
2016-03-08T07:32:21.849Z,996.68
2016-03-08T07:33:21.868Z,996.69
2016-03-08T07:34:21.870Z,996.7
2016-03-08T07:35:21.873Z,996.73
2016-03-08T07:36:21.892Z,996.75
2016-03-08T07:37:21.909Z,996.79
2016-03-08T07:38:21.911Z,996.8
2016-03-08T07:39:21.930Z,996.8
2016-03-08T07:40:21.933Z,996.79
2016-03-08T07:41:21.951Z,996.84
2016-03-08T07:42:21.954Z,996.82
2016-03-08T07:43:21.973Z,996.89
2016-03-08T07:44:21.991Z,996.87
2016-03-08T07:45:21.993Z,996.91
2016-03-08T07:46:22.012Z,996.9
2016-03-08T07:47:22.014Z,996.89
2016-03-08T07:48:22.033Z,996.89
2016-03-08T07:49:22.051Z,996.9
2016-03-08T07:50:22.054Z,996.91
2016-03-08T07:51:22.072Z,996.91
2016-03-08T07:52:22.074Z,996.95
2016-03-08T07:53:22.094Z,997
2016-03-08T07:54:22.111Z,996.96
2016-03-08T07:55:22.114Z,996.96
2016-03-08T07:56:22.132Z,997
2016-03-08T07:57:22.135Z,996.99
2016-03-08T07:58:22.154Z,997.03
2016-03-08T07:59:22.169Z,997.04
2016-03-08T08:00:22.172Z,997.08
2016-03-08T08:01:22.191Z,997.11
2016-03-08T08:02:22.209Z,997.07
2016-03-08T08:03:22.212Z,997.08
2016-03-08T08:04:22.230Z,997.12
2016-03-08T08:05:22.232Z,997.11
2016-03-08T08:06:22.251Z,997.12
2016-03-08T08:07:22.254Z,997.13
2016-03-08T08:08:22.273Z,997.13
2016-03-08T08:09:22.290Z,997.15
2016-03-08T08:10:22.293Z,997.09
2016-03-08T08:11:22.312Z,997.11
2016-03-08T08:12:22.329Z,997.12
2016-03-08T08:13:22.331Z,997.12
2016-03-08T08:14:22.351Z,997.15
2016-03-08T08:15:22.369Z,997.14
2016-03-08T08:16:22.372Z,997.16
2016-03-08T08:17:22.390Z,997.17
2016-03-08T08:18:22.392Z,997.16
2016-03-08T08:19:22.411Z,997.17
2016-03-08T08:20:22.429Z,997.18
2016-03-08T08:21:22.433Z,997.2
2016-03-08T08:22:22.450Z,997.18
2016-03-08T08:23:22.452Z,997.23
2016-03-08T08:24:22.471Z,997.2
2016-03-08T08:25:22.489Z,997.21
2016-03-08T08:26:22.508Z,997.25
2016-03-08T08:27:22.511Z,997.31
2016-03-08T08:28:22.529Z,997.28
2016-03-08T08:29:22.532Z,997.28
2016-03-08T08:30:22.550Z,997.33
2016-03-08T08:31:22.568Z,997.32
2016-03-08T08:32:22.571Z,997.33
2016-03-08T08:33:22.590Z,997.37
2016-03-08T08:34:22.607Z,997.38
2016-03-08T08:35:22.626Z,997.35
2016-03-08T08:36:22.629Z,997.34
2016-03-08T08:37:22.646Z,997.35
2016-03-08T08:38:22.649Z,997.36
2016-03-08T08:39:22.668Z,997.33
2016-03-08T08:40:22.671Z,997.34
2016-03-08T08:41:22.705Z,997.33
2016-03-08T08:42:22.707Z,997.31
2016-03-08T08:43:22.710Z,997.42
2016-03-08T08:44:22.728Z,997.36
2016-03-08T08:45:22.747Z,997.39
2016-03-08T08:46:22.764Z,997.46
2016-03-08T08:47:22.767Z,997.48
2016-03-08T08:48:22.786Z,997.47
2016-03-08T08:49:22.788Z,997.5
2016-03-08T08:50:22.806Z,997.46
2016-03-08T08:51:22.825Z,997.53
2016-03-08T08:52:22.844Z,997.55
2016-03-08T08:53:22.846Z,997.48
2016-03-08T08:54:22.864Z,997.53
2016-03-08T08:55:22.883Z,997.51
2016-03-08T08:56:22.902Z,997.52
2016-03-08T08:57:22.904Z,997.54
2016-03-08T08:58:22.922Z,997.52
2016-03-08T08:59:22.925Z,997.53
2016-03-08T09:00:22.943Z,997.55
2016-03-08T09:01:22.961Z,997.53
2016-03-08T09:02:22.964Z,997.57
2016-03-08T09:03:22.982Z,997.52
2016-03-08T09:04:23.001Z,997.51
2016-03-08T09:05:23.003Z,997.56
2016-03-08T09:06:23.022Z,997.52
2016-03-08T09:07:23.040Z,997.53
2016-03-08T09:08:23.059Z,997.53
2016-03-08T09:09:23.062Z,997.49
2016-03-08T09:10:23.079Z,997.47
2016-03-08T09:11:23.098Z,997.51
2016-03-08T09:12:23.116Z,997.53
2016-03-08T09:13:23.165Z,997.52
2016-03-08T09:14:23.144Z,997.55
2016-03-08T09:15:23.147Z,997.55
2016-03-08T09:16:23.165Z,997.6
2016-03-08T09:17:23.167Z,997.62
2016-03-08T09:18:23.185Z,997.65
2016-03-08T09:19:23.205Z,997.65
2016-03-08T09:20:23.207Z,997.68
2016-03-08T09:21:23.225Z,997.71
2016-03-08T09:22:23.244Z,997.72
2016-03-08T09:23:23.262Z,997.7
2016-03-08T09:24:23.265Z,997.7
2016-03-08T09:25:23.283Z,997.72
2016-03-08T09:26:23.302Z,997.72
2016-03-08T09:27:23.304Z,997.71
2016-03-08T09:28:23.322Z,997.7
2016-03-08T09:29:23.341Z,997.7
2016-03-08T09:30:23.343Z,997.74
2016-03-08T09:31:23.362Z,997.78
2016-03-08T09:32:23.379Z,997.74
2016-03-08T09:33:23.382Z,997.74
2016-03-08T09:34:23.400Z,997.77
2016-03-08T09:35:23.420Z,997.77
2016-03-08T09:36:23.437Z,997.78
2016-03-08T09:37:23.439Z,997.74
2016-03-08T09:38:23.458Z,997.78
2016-03-08T09:39:23.476Z,997.78
2016-03-08T09:40:23.479Z,997.8
2016-03-08T09:41:23.498Z,997.84
2016-03-08T09:42:23.516Z,997.84
2016-03-08T09:43:23.519Z,997.85
2016-03-08T09:44:23.536Z,997.84
2016-03-08T09:45:23.556Z,997.89
2016-03-08T09:46:23.574Z,997.9
2016-03-08T09:47:23.576Z,997.94
2016-03-08T09:48:23.595Z,997.92
2016-03-08T09:49:23.597Z,997.9
2016-03-08T09:50:23.616Z,997.94
2016-03-08T09:51:23.634Z,997.93
2016-03-08T09:52:23.652Z,997.93
2016-03-08T09:53:23.655Z,997.91
2016-03-08T09:54:23.673Z,997.94
2016-03-08T09:55:23.691Z,997.91
2016-03-08T09:56:23.694Z,997.93
2016-03-08T09:57:23.712Z,997.97
2016-03-08T09:58:23.731Z,997.96
2016-03-08T09:59:23.734Z,997.99
2016-03-08T10:00:23.752Z,997.96
2016-03-08T10:01:23.770Z,997.98
2016-03-08T10:02:23.773Z,998.04
2016-03-08T10:03:23.790Z,998.06
2016-03-08T10:04:23.810Z,998.03
2016-03-08T10:05:23.828Z,998.04
2016-03-08T10:06:23.831Z,998.03
2016-03-08T10:07:23.850Z,998.07
2016-03-08T10:08:23.884Z,998.11
2016-03-08T10:09:23.871Z,998.09
2016-03-08T10:10:23.890Z,998.14
2016-03-08T10:11:23.907Z,998.11
2016-03-08T10:12:23.910Z,998.16
2016-03-08T10:13:23.929Z,998.14
2016-03-08T10:14:23.946Z,998.14
2016-03-08T10:15:23.949Z,998.1
2016-03-08T10:16:23.961Z,998.14
2016-03-08T10:17:23.971Z,998.15
2016-03-08T10:18:23.978Z,998.15
2016-03-08T10:19:23.971Z,998.16
2016-03-08T10:20:23.980Z,998.15
2016-03-08T10:21:23.992Z,998.18
2016-03-08T10:22:23.992Z,998.2
2016-03-08T10:23:24.006Z,998.21
2016-03-08T10:24:24.020Z,998.2
2016-03-08T10:25:24.020Z,998.2
2016-03-08T10:26:24.036Z,998.21
2016-03-08T10:27:24.053Z,998.19
2016-03-08T10:28:24.071Z,998.2
2016-03-08T10:29:24.073Z,998.22
2016-03-08T10:30:24.089Z,998.2
2016-03-08T10:31:24.123Z,998.24
2016-03-08T10:32:24.125Z,998.21
2016-03-08T10:33:24.127Z,998.25
2016-03-08T10:34:24.144Z,998.26
2016-03-08T10:35:24.147Z,998.22
2016-03-08T10:36:24.165Z,998.3
2016-03-08T10:37:24.183Z,998.29
2016-03-08T10:38:24.201Z,998.28
2016-03-08T10:39:24.203Z,998.27
2016-03-08T10:40:24.221Z,998.35
2016-03-08T10:41:24.239Z,998.3
2016-03-08T10:42:24.258Z,998.33
2016-03-08T10:43:24.260Z,998.34
2016-03-08T10:44:24.279Z,998.34
2016-03-08T10:45:24.282Z,998.38
2016-03-08T10:46:24.299Z,998.32
2016-03-08T10:47:24.319Z,998.36
2016-03-08T10:48:24.321Z,998.35
2016-03-08T10:49:24.338Z,998.32
2016-03-08T10:50:24.358Z,998.34
2016-03-08T10:51:24.376Z,998.31
2016-03-08T10:52:24.393Z,998.35
2016-03-08T10:53:24.397Z,998.35
2016-03-08T10:54:24.415Z,998.38
2016-03-08T10:55:24.418Z,998.42
2016-03-08T10:56:24.437Z,998.42
2016-03-08T10:57:24.454Z,998.41
2016-03-08T10:58:24.472Z,998.38
2016-03-08T10:59:24.476Z,998.36
2016-03-08T11:00:24.493Z,998.37
2016-03-08T11:01:24.511Z,998.32
2016-03-08T11:02:24.515Z,998.35
2016-03-08T11:03:24.533Z,998.38
2016-03-08T11:04:24.551Z,998.41
2016-03-08T11:05:24.570Z,998.4
2016-03-08T11:06:24.572Z,998.47
2016-03-08T11:07:24.591Z,998.43
2016-03-08T11:08:24.609Z,998.42
2016-03-08T11:09:24.611Z,998.45
2016-03-08T11:10:24.630Z,998.47
2016-03-08T11:11:24.648Z,998.49
2016-03-08T11:12:24.666Z,998.47
2016-03-08T11:13:24.670Z,998.5
2016-03-08T11:14:24.688Z,998.45
2016-03-08T11:15:24.705Z,998.44
2016-03-08T11:16:24.725Z,998.44
2016-03-08T11:17:24.743Z,998.38
2016-03-08T11:18:24.745Z,998.44
2016-03-08T11:19:24.763Z,998.48
2016-03-08T11:20:24.782Z,998.37
2016-03-08T11:21:24.800Z,998.35
2016-03-08T11:22:24.802Z,998.29
2016-03-08T11:23:24.821Z,998.37
2016-03-08T11:24:24.870Z,998.42
2016-03-08T11:25:24.857Z,998.42
2016-03-08T11:26:24.860Z,998.4
2016-03-08T11:27:24.925Z,998.43
2016-03-08T11:28:24.898Z,998.4
2016-03-08T11:29:24.915Z,998.41
2016-03-08T11:30:24.918Z,998.35
2016-03-08T11:31:24.952Z,998.35
2016-03-08T11:32:24.954Z,998.31
2016-03-08T11:33:24.957Z,998.28
2016-03-08T11:34:24.976Z,998.29
2016-03-08T11:35:24.994Z,998.33
2016-03-08T11:36:25.012Z,998.28
2016-03-08T11:37:25.030Z,998.29
2016-03-08T11:38:25.034Z,998.26
2016-03-08T11:39:25.052Z,998.2
2016-03-08T11:40:25.069Z,998.26
2016-03-08T11:41:25.089Z,998.25
2016-03-08T11:42:25.091Z,998.21
2016-03-08T11:43:25.108Z,998.25
2016-03-08T11:44:25.128Z,998.27
2016-03-08T11:45:25.162Z,998.26
2016-03-08T11:46:25.149Z,998.19
2016-03-08T11:47:25.199Z,998.22
2016-03-08T11:48:25.186Z,998.19
2016-03-08T11:49:25.204Z,998.23
2016-03-08T11:50:25.206Z,998.2
2016-03-08T11:51:25.224Z,998.18
2016-03-08T11:52:25.243Z,998.13
2016-03-08T11:53:25.245Z,998.18
2016-03-08T11:54:25.263Z,998.22
2016-03-08T11:55:25.282Z,998.2
2016-03-08T11:56:25.301Z,998.22
2016-03-08T11:57:25.303Z,998.24
2016-03-08T11:58:25.321Z,998.21
2016-03-08T11:59:25.340Z,998.22
2016-03-08T12:00:25.358Z,998.23
2016-03-08T12:01:25.362Z,998.2
2016-03-08T12:02:25.379Z,998.19
2016-03-08T12:03:25.397Z,998.16
2016-03-08T12:04:25.416Z,998.15
2016-03-08T12:05:25.418Z,998.11
2016-03-08T12:06:25.438Z,998.13
2016-03-08T12:07:25.457Z,998.06
2016-03-08T12:08:25.460Z,998.17
2016-03-08T12:09:25.478Z,998.16
2016-03-08T12:10:25.496Z,998.21
2016-03-08T12:11:25.515Z,998.17
2016-03-08T12:12:25.518Z,998.2
2016-03-08T12:13:25.535Z,998.15
2016-03-08T12:14:25.554Z,998.11
2016-03-08T12:15:25.572Z,998.13
2016-03-08T12:16:25.575Z,998.13
2016-03-08T12:17:25.593Z,998.12
2016-03-08T12:18:25.612Z,998.14
2016-03-08T12:19:25.615Z,998.21
2016-03-08T12:20:25.648Z,998.15
2016-03-08T12:21:25.650Z,998.19
2016-03-08T12:22:25.670Z,998.21
2016-03-08T12:23:25.672Z,998.16
2016-03-08T12:24:25.690Z,998.21
2016-03-08T12:25:25.709Z,998.24
2016-03-08T12:26:25.711Z,998.25
2016-03-08T12:27:25.729Z,998.23
2016-03-08T12:28:25.763Z,998.22
2016-03-08T12:29:25.751Z,998.25
2016-03-08T12:30:25.769Z,998.21
2016-03-08T12:31:25.787Z,998.31
2016-03-08T12:32:25.790Z,998.3
2016-03-08T12:33:25.808Z,998.3
2016-03-08T12:34:25.827Z,998.32